sensor_id;sensor_type;location;lat;lon;timestamp;P1;durP1;ratioP1;P2;durP2;ratioP2
20036;SDS011;10179;42.640;23.312;2023-05-23T00:00:40;6.30;;;3.83;;
20036;SDS011;10179;42.640;23.312;2023-05-23T00:03:06;5.38;;;3.00;;
20036;SDS011;10179;42.640;23.312;2023-05-23T00:05:32;6.38;;;3.72;;
20036;SDS011;10179;42.640;23.312;2023-05-23T00:07:59;5.00;;;3.30;;
20036;SDS011;10179;42.640;23.312;2023-05-23T00:10:25;3.97;;;2.90;;
20036;SDS011;10179;42.640;23.312;2023-05-23T00:12:50;5.90;;;3.08;;
20036;SDS011;10179;42.640;23.312;2023-05-23T00:15:16;6.20;;;2.65;;
20036;SDS011;10179;42.640;23.312;2023-05-23T00:17:41;4.72;;;2.67;;
20036;SDS011;10179;42.640;23.312;2023-05-23T00:20:08;4.45;;;3.30;;
20036;SDS011;10179;42.640;23.312;2023-05-23T00:22:35;5.95;;;2.90;;
20036;SDS011;10179;42.640;23.312;2023-05-23T00:25:04;4.43;;;2.88;;
20036;SDS011;10179;42.640;23.312;2023-05-23T00:27:30;4.28;;;2.97;;
20036;SDS011;10179;42.640;23.312;2023-05-23T00:29:55;5.55;;;3.35;;
20036;SDS011;10179;42.640;23.312;2023-05-23T00:32:21;3.92;;;2.50;;
20036;SDS011;10179;42.640;23.312;2023-05-23T00:34:46;3.92;;;2.47;;
20036;SDS011;10179;42.640;23.312;2023-05-23T00:37:12;8.55;;;2.33;;
20036;SDS011;10179;42.640;23.312;2023-05-23T00:39:38;6.22;;;2.47;;
20036;SDS011;10179;42.640;23.312;2023-05-23T00:42:03;3.78;;;2.50;;
20036;SDS011;10179;42.640;23.312;2023-05-23T00:44:30;3.65;;;2.60;;
20036;SDS011;10179;42.640;23.312;2023-05-23T00:46:55;4.30;;;2.20;;
20036;SDS011;10179;42.640;23.312;2023-05-23T00:49:22;5.90;;;2.38;;
20036;SDS011;10179;42.640;23.312;2023-05-23T00:51:48;3.58;;;2.42;;
20036;SDS011;10179;42.640;23.312;2023-05-23T00:54:14;6.20;;;2.75;;
20036;SDS011;10179;42.640;23.312;2023-05-23T00:56:42;4.50;;;2.58;;
20036;SDS011;10179;42.640;23.312;2023-05-23T00:59:08;4.70;;;2.58;;
20036;SDS011;10179;42.640;23.312;2023-05-23T01:01:33;5.03;;;2.40;;
20036;SDS011;10179;42.640;23.312;2023-05-23T01:04:01;4.18;;;3.00;;
20036;SDS011;10179;42.640;23.312;2023-05-23T01:06:28;3.60;;;2.58;;
20036;SDS011;10179;42.640;23.312;2023-05-23T01:08:54;5.13;;;2.63;;
20036;SDS011;10179;42.640;23.312;2023-05-23T01:11:25;4.40;;;3.33;;
20036;SDS011;10179;42.640;23.312;2023-05-23T01:13:58;5.30;;;3.03;;
20036;SDS011;10179;42.640;23.312;2023-05-23T01:16:41;5.88;;;3.60;;
20036;SDS011;10179;42.640;23.312;2023-05-23T01:21:52;5.90;;;3.15;;
20036;SDS011;10179;42.640;23.312;2023-05-23T01:29:31;4.10;;;3.40;;
20036;SDS011;10179;42.640;23.312;2023-05-23T01:31:59;5.72;;;3.72;;
20036;SDS011;10179;42.640;23.312;2023-05-23T01:34:26;6.40;;;4.07;;
20036;SDS011;10179;42.640;23.312;2023-05-23T01:36:54;4.28;;;3.15;;
20036;SDS011;10179;42.640;23.312;2023-05-23T01:39:20;6.05;;;4.07;;
20036;SDS011;10179;42.640;23.312;2023-05-23T01:41:47;5.15;;;3.67;;
20036;SDS011;10179;42.640;23.312;2023-05-23T01:44:14;6.05;;;3.33;;
20036;SDS011;10179;42.640;23.312;2023-05-23T01:46:40;5.70;;;3.92;;
20036;SDS011;10179;42.640;23.312;2023-05-23T01:49:08;5.85;;;4.00;;
20036;SDS011;10179;42.640;23.312;2023-05-23T01:51:36;6.03;;;3.40;;
20036;SDS011;10179;42.640;23.312;2023-05-23T01:54:02;5.40;;;3.60;;
20036;SDS011;10179;42.640;23.312;2023-05-23T01:56:28;5.03;;;3.75;;
20036;SDS011;10179;42.640;23.312;2023-05-23T01:58:54;6.43;;;3.90;;
20036;SDS011;10179;42.640;23.312;2023-05-23T02:01:20;7.65;;;4.30;;
20036;SDS011;10179;42.640;23.312;2023-05-23T02:03:45;4.45;;;3.47;;
20036;SDS011;10179;42.640;23.312;2023-05-23T02:06:11;4.88;;;3.35;;
20036;SDS011;10179;42.640;23.312;2023-05-23T02:08:36;5.80;;;3.63;;
20036;SDS011;10179;42.640;23.312;2023-05-23T02:11:02;9.25;;;3.85;;
20036;SDS011;10179;42.640;23.312;2023-05-23T02:13:27;6.05;;;3.88;;
20036;SDS011;10179;42.640;23.312;2023-05-23T02:15:52;5.07;;;3.38;;
20036;SDS011;10179;42.640;23.312;2023-05-23T02:18:18;6.93;;;4.05;;
20036;SDS011;10179;42.640;23.312;2023-05-23T02:20:44;6.05;;;4.13;;
20036;SDS011;10179;42.640;23.312;2023-05-23T02:23:10;8.95;;;4.07;;
20036;SDS011;10179;42.640;23.312;2023-05-23T02:25:35;6.20;;;3.45;;
20036;SDS011;10179;42.640;23.312;2023-05-23T02:28:01;4.68;;;3.50;;
20036;SDS011;10179;42.640;23.312;2023-05-23T02:30:26;7.45;;;3.90;;
20036;SDS011;10179;42.640;23.312;2023-05-23T02:32:51;7.10;;;4.15;;
20036;SDS011;10179;42.640;23.312;2023-05-23T02:35:17;6.57;;;3.85;;
20036;SDS011;10179;42.640;23.312;2023-05-23T02:37:42;7.60;;;3.95;;
20036;SDS011;10179;42.640;23.312;2023-05-23T02:40:08;6.47;;;4.00;;
20036;SDS011;10179;42.640;23.312;2023-05-23T02:42:34;6.35;;;4.00;;
20036;SDS011;10179;42.640;23.312;2023-05-23T02:44:59;7.38;;;3.80;;
20036;SDS011;10179;42.640;23.312;2023-05-23T02:47:25;10.50;;;4.50;;
20036;SDS011;10179;42.640;23.312;2023-05-23T02:49:50;6.90;;;3.95;;
20036;SDS011;10179;42.640;23.312;2023-05-23T02:52:16;7.80;;;4.18;;
20036;SDS011;10179;42.640;23.312;2023-05-23T02:54:41;7.07;;;4.50;;
20036;SDS011;10179;42.640;23.312;2023-05-23T02:57:07;11.90;;;4.18;;
20036;SDS011;10179;42.640;23.312;2023-05-23T02:59:32;6.28;;;3.92;;
20036;SDS011;10179;42.640;23.312;2023-05-23T03:01:58;8.35;;;4.55;;
20036;SDS011;10179;42.640;23.312;2023-05-23T03:04:23;6.93;;;3.92;;
20036;SDS011;10179;42.640;23.312;2023-05-23T03:06:49;7.70;;;3.90;;
20036;SDS011;10179;42.640;23.312;2023-05-23T03:09:18;6.88;;;3.97;;
20036;SDS011;10179;42.640;23.312;2023-05-23T03:11:44;6.38;;;4.00;;
20036;SDS011;10179;42.640;23.312;2023-05-23T03:14:09;6.22;;;3.97;;
20036;SDS011;10179;42.640;23.312;2023-05-23T03:16:35;8.52;;;4.50;;
20036;SDS011;10179;42.640;23.312;2023-05-23T03:19:00;8.80;;;4.43;;
20036;SDS011;10179;42.640;23.312;2023-05-23T03:21:26;9.48;;;4.60;;
20036;SDS011;10179;42.640;23.312;2023-05-23T03:23:51;9.75;;;4.75;;
20036;SDS011;10179;42.640;23.312;2023-05-23T03:26:16;6.85;;;4.47;;
20036;SDS011;10179;42.640;23.312;2023-05-23T03:28:42;7.05;;;4.60;;
20036;SDS011;10179;42.640;23.312;2023-05-23T03:31:07;8.73;;;4.28;;
20036;SDS011;10179;42.640;23.312;2023-05-23T03:33:33;7.63;;;4.60;;
20036;SDS011;10179;42.640;23.312;2023-05-23T03:35:58;7.38;;;4.45;;
20036;SDS011;10179;42.640;23.312;2023-05-23T03:38:23;6.75;;;4.28;;
20036;SDS011;10179;42.640;23.312;2023-05-23T03:40:49;8.90;;;4.97;;
20036;SDS011;10179;42.640;23.312;2023-05-23T03:43:14;10.77;;;5.03;;
20036;SDS011;10179;42.640;23.312;2023-05-23T03:45:40;10.15;;;4.88;;
20036;SDS011;10179;42.640;23.312;2023-05-23T03:48:05;10.48;;;5.07;;
20036;SDS011;10179;42.640;23.312;2023-05-23T03:50:31;9.55;;;4.95;;
20036;SDS011;10179;42.640;23.312;2023-05-23T03:52:56;8.38;;;5.22;;
20036;SDS011;10179;42.640;23.312;2023-05-23T03:55:21;8.45;;;5.25;;
20036;SDS011;10179;42.640;23.312;2023-05-23T03:57:48;10.43;;;5.10;;
20036;SDS011;10179;42.640;23.312;2023-05-23T04:00:14;9.57;;;4.65;;
20036;SDS011;10179;42.640;23.312;2023-05-23T04:02:39;13.73;;;5.20;;
20036;SDS011;10179;42.640;23.312;2023-05-23T04:05:05;10.70;;;5.38;;
20036;SDS011;10179;42.640;23.312;2023-05-23T04:07:31;9.93;;;5.63;;
20036;SDS011;10179;42.640;23.312;2023-05-23T04:10:00;18.25;;;7.75;;
20036;SDS011;10179;42.640;23.312;2023-05-23T04:12:26;14.20;;;7.10;;
20036;SDS011;10179;42.640;23.312;2023-05-23T04:14:54;23.10;;;8.60;;
20036;SDS011;10179;42.640;23.312;2023-05-23T04:17:20;18.58;;;8.40;;
20036;SDS011;10179;42.640;23.312;2023-05-23T04:19:46;19.23;;;7.90;;
20036;SDS011;10179;42.640;23.312;2023-05-23T04:22:12;52.80;;;9.52;;
20036;SDS011;10179;42.640;23.312;2023-05-23T04:24:37;19.73;;;9.73;;
20036;SDS011;10179;42.640;23.312;2023-05-23T04:27:02;43.20;;;9.10;;
20036;SDS011;10179;42.640;23.312;2023-05-23T04:29:28;43.05;;;9.32;;
20036;SDS011;10179;42.640;23.312;2023-05-23T04:31:55;109.13;;;15.93;;
20036;SDS011;10179;42.640;23.312;2023-05-23T04:34:21;33.00;;;11.80;;
20036;SDS011;10179;42.640;23.312;2023-05-23T04:36:47;74.88;;;11.18;;
20036;SDS011;10179;42.640;23.312;2023-05-23T04:39:13;48.38;;;12.52;;
20036;SDS011;10179;42.640;23.312;2023-05-23T04:41:40;50.38;;;11.23;;
20036;SDS011;10179;42.640;23.312;2023-05-23T04:44:08;44.33;;;10.57;;
20036;SDS011;10179;42.640;23.312;2023-05-23T04:46:34;84.88;;;11.90;;
20036;SDS011;10179;42.640;23.312;2023-05-23T04:49:00;68.53;;;12.00;;
20036;SDS011;10179;42.640;23.312;2023-05-23T04:51:26;75.03;;;14.20;;
20036;SDS011;10179;42.640;23.312;2023-05-23T04:53:51;33.97;;;11.13;;
20036;SDS011;10179;42.640;23.312;2023-05-23T04:56:17;23.15;;;10.55;;
20036;SDS011;10179;42.640;23.312;2023-05-23T04:58:45;24.02;;;10.73;;
20036;SDS011;10179;42.640;23.312;2023-05-23T05:01:10;29.35;;;10.48;;
20036;SDS011;10179;42.640;23.312;2023-05-23T05:03:37;28.88;;;10.98;;
20036;SDS011;10179;42.640;23.312;2023-05-23T05:06:03;28.77;;;11.68;;
20036;SDS011;10179;42.640;23.312;2023-05-23T05:08:30;38.53;;;12.05;;
20036;SDS011;10179;42.640;23.312;2023-05-23T05:10:55;32.13;;;11.02;;
20036;SDS011;10179;42.640;23.312;2023-05-23T05:13:21;57.85;;;12.52;;
20036;SDS011;10179;42.640;23.312;2023-05-23T05:15:46;25.92;;;12.02;;
20036;SDS011;10179;42.640;23.312;2023-05-23T05:18:11;34.28;;;12.15;;
20036;SDS011;10179;42.640;23.312;2023-05-23T05:20:37;28.95;;;13.40;;
20036;SDS011;10179;42.640;23.312;2023-05-23T05:23:03;24.42;;;13.02;;
20036;SDS011;10179;42.640;23.312;2023-05-23T05:25:28;66.32;;;12.60;;
20036;SDS011;10179;42.640;23.312;2023-05-23T05:27:57;70.22;;;12.65;;
20036;SDS011;10179;42.640;23.312;2023-05-23T05:30:27;31.30;;;11.40;;
20036;SDS011;10179;42.640;23.312;2023-05-23T05:32:52;35.53;;;11.90;;
20036;SDS011;10179;42.640;23.312;2023-05-23T05:35:17;23.25;;;10.88;;
20036;SDS011;10179;42.640;23.312;2023-05-23T05:37:43;18.95;;;9.77;;
20036;SDS011;10179;42.640;23.312;2023-05-23T05:40:08;18.15;;;9.50;;
20036;SDS011;10179;42.640;23.312;2023-05-23T05:42:34;19.90;;;9.90;;
20036;SDS011;10179;42.640;23.312;2023-05-23T05:44:59;24.77;;;12.75;;
20036;SDS011;10179;42.640;23.312;2023-05-23T05:47:25;26.83;;;11.35;;
20036;SDS011;10179;42.640;23.312;2023-05-23T05:49:51;27.15;;;12.25;;
20036;SDS011;10179;42.640;23.312;2023-05-23T05:52:16;37.72;;;12.85;;
20036;SDS011;10179;42.640;23.312;2023-05-23T05:54:41;30.63;;;14.10;;
20036;SDS011;10179;42.640;23.312;2023-05-23T05:57:07;34.17;;;13.35;;
20036;SDS011;10179;42.640;23.312;2023-05-23T05:59:32;32.72;;;13.32;;
20036;SDS011;10179;42.640;23.312;2023-05-23T06:01:58;31.63;;;14.18;;
20036;SDS011;10179;42.640;23.312;2023-05-23T06:04:23;35.90;;;15.20;;
20036;SDS011;10179;42.640;23.312;2023-05-23T06:06:49;43.55;;;13.02;;
20036;SDS011;10179;42.640;23.312;2023-05-23T06:09:15;25.38;;;12.50;;
20036;SDS011;10179;42.640;23.312;2023-05-23T06:11:40;22.23;;;10.40;;
20036;SDS011;10179;42.640;23.312;2023-05-23T06:14:06;19.58;;;10.52;;
20036;SDS011;10179;42.640;23.312;2023-05-23T06:16:31;24.02;;;11.57;;
20036;SDS011;10179;42.640;23.312;2023-05-23T06:18:57;22.50;;;11.23;;
20036;SDS011;10179;42.640;23.312;2023-05-23T06:21:22;25.63;;;11.70;;
20036;SDS011;10179;42.640;23.312;2023-05-23T06:23:48;26.35;;;11.73;;
20036;SDS011;10179;42.640;23.312;2023-05-23T06:26:13;25.00;;;12.00;;
20036;SDS011;10179;42.640;23.312;2023-05-23T06:28:38;23.77;;;11.38;;
20036;SDS011;10179;42.640;23.312;2023-05-23T06:31:04;23.40;;;11.35;;
20036;SDS011;10179;42.640;23.312;2023-05-23T06:33:30;33.25;;;11.95;;
20036;SDS011;10179;42.640;23.312;2023-05-23T06:35:56;24.15;;;11.05;;
20036;SDS011;10179;42.640;23.312;2023-05-23T06:38:21;30.50;;;12.35;;
20036;SDS011;10179;42.640;23.312;2023-05-23T06:40:47;22.52;;;11.40;;
20036;SDS011;10179;42.640;23.312;2023-05-23T06:43:12;25.55;;;12.13;;
20036;SDS011;10179;42.640;23.312;2023-05-23T06:45:37;31.48;;;11.68;;
20036;SDS011;10179;42.640;23.312;2023-05-23T06:48:03;23.05;;;11.85;;
20036;SDS011;10179;42.640;23.312;2023-05-23T06:50:28;25.63;;;11.93;;
20036;SDS011;10179;42.640;23.312;2023-05-23T06:52:54;26.33;;;11.30;;
20036;SDS011;10179;42.640;23.312;2023-05-23T06:55:20;22.25;;;10.70;;
20036;SDS011;10179;42.640;23.312;2023-05-23T06:57:45;21.73;;;9.68;;
20036;SDS011;10179;42.640;23.312;2023-05-23T07:00:11;19.92;;;10.13;;
20036;SDS011;10179;42.640;23.312;2023-05-23T07:02:37;19.33;;;9.93;;
20036;SDS011;10179;42.640;23.312;2023-05-23T07:05:03;29.20;;;10.07;;
20036;SDS011;10179;42.640;23.312;2023-05-23T07:07:29;23.13;;;10.23;;
20036;SDS011;10179;42.640;23.312;2023-05-23T07:09:54;21.27;;;9.45;;
20036;SDS011;10179;42.640;23.312;2023-05-23T07:12:20;14.90;;;8.48;;
20036;SDS011;10179;42.640;23.312;2023-05-23T07:14:45;17.13;;;8.85;;
20036;SDS011;10179;42.640;23.312;2023-05-23T07:17:10;18.13;;;8.73;;
20036;SDS011;10179;42.640;23.312;2023-05-23T07:19:36;23.60;;;9.30;;
20036;SDS011;10179;42.640;23.312;2023-05-23T07:22:02;14.13;;;6.88;;
20036;SDS011;10179;42.640;23.312;2023-05-23T07:24:27;13.93;;;5.80;;
20036;SDS011;10179;42.640;23.312;2023-05-23T07:26:52;21.23;;;8.50;;
20036;SDS011;10179;42.640;23.312;2023-05-23T07:29:18;20.05;;;9.55;;
20036;SDS011;10179;42.640;23.312;2023-05-23T07:31:43;19.77;;;9.75;;
20036;SDS011;10179;42.640;23.312;2023-05-23T07:34:10;20.45;;;10.13;;
20036;SDS011;10179;42.640;23.312;2023-05-23T07:36:35;20.75;;;10.98;;
20036;SDS011;10179;42.640;23.312;2023-05-23T07:39:01;22.25;;;9.90;;
20036;SDS011;10179;42.640;23.312;2023-05-23T07:41:27;21.08;;;9.15;;
20036;SDS011;10179;42.640;23.312;2023-05-23T07:43:53;19.15;;;8.02;;
20036;SDS011;10179;42.640;23.312;2023-05-23T07:46:18;26.02;;;6.82;;
20036;SDS011;10179;42.640;23.312;2023-05-23T07:48:44;11.30;;;6.50;;
20036;SDS011;10179;42.640;23.312;2023-05-23T07:51:09;9.50;;;6.35;;
20036;SDS011;10179;42.640;23.312;2023-05-23T07:53:34;14.82;;;5.95;;
20036;SDS011;10179;42.640;23.312;2023-05-23T07:56:04;16.83;;;6.30;;
20036;SDS011;10179;42.640;23.312;2023-05-23T07:58:30;14.90;;;6.90;;
20036;SDS011;10179;42.640;23.312;2023-05-23T08:00:55;12.85;;;6.97;;
20036;SDS011;10179;42.640;23.312;2023-05-23T08:03:22;22.05;;;7.13;;
20036;SDS011;10179;42.640;23.312;2023-05-23T08:05:47;17.50;;;6.70;;
20036;SDS011;10179;42.640;23.312;2023-05-23T08:08:13;12.93;;;6.82;;
20036;SDS011;10179;42.640;23.312;2023-05-23T08:10:38;12.43;;;6.90;;
20036;SDS011;10179;42.640;23.312;2023-05-23T08:13:04;20.75;;;8.93;;
20036;SDS011;10179;42.640;23.312;2023-05-23T08:15:31;14.55;;;7.00;;
20036;SDS011;10179;42.640;23.312;2023-05-23T08:17:57;21.77;;;8.02;;
20036;SDS011;10179;42.640;23.312;2023-05-23T08:20:24;17.48;;;6.47;;
20036;SDS011;10179;42.640;23.312;2023-05-23T08:22:55;14.98;;;6.60;;
20036;SDS011;10179;42.640;23.312;2023-05-23T08:25:24;9.60;;;4.95;;
20036;SDS011;10179;42.640;23.312;2023-05-23T08:27:54;15.48;;;7.00;;
20036;SDS011;10179;42.640;23.312;2023-05-23T08:30:21;12.40;;;5.38;;
20036;SDS011;10179;42.640;23.312;2023-05-23T08:32:47;12.30;;;5.57;;
20036;SDS011;10179;42.640;23.312;2023-05-23T08:35:12;21.27;;;6.45;;
20036;SDS011;10179;42.640;23.312;2023-05-23T08:37:38;12.48;;;5.93;;
20036;SDS011;10179;42.640;23.312;2023-05-23T08:40:05;10.57;;;5.50;;
20036;SDS011;10179;42.640;23.312;2023-05-23T08:42:32;13.05;;;5.72;;
20036;SDS011;10179;42.640;23.312;2023-05-23T08:44:58;10.82;;;4.90;;
20036;SDS011;10179;42.640;23.312;2023-05-23T08:47:23;11.27;;;4.88;;
20036;SDS011;10179;42.640;23.312;2023-05-23T08:49:49;14.57;;;5.50;;
20036;SDS011;10179;42.640;23.312;2023-05-23T08:52:19;9.55;;;4.43;;
20036;SDS011;10179;42.640;23.312;2023-05-23T08:54:47;16.42;;;4.22;;
20036;SDS011;10179;42.640;23.312;2023-05-23T08:57:13;11.60;;;4.00;;
20036;SDS011;10179;42.640;23.312;2023-05-23T08:59:38;5.45;;;3.10;;
20036;SDS011;10179;42.640;23.312;2023-05-23T09:02:04;11.52;;;4.15;;
20036;SDS011;10179;42.640;23.312;2023-05-23T09:04:34;7.47;;;3.72;;
20036;SDS011;10179;42.640;23.312;2023-05-23T09:07:00;5.88;;;3.30;;
20036;SDS011;10179;42.640;23.312;2023-05-23T09:09:26;6.32;;;3.05;;
20036;SDS011;10179;42.640;23.312;2023-05-23T09:11:53;4.15;;;2.55;;
20036;SDS011;10179;42.640;23.312;2023-05-23T09:14:19;8.95;;;2.70;;
20036;SDS011;10179;42.640;23.312;2023-05-23T09:16:46;6.47;;;2.88;;
20036;SDS011;10179;42.640;23.312;2023-05-23T09:19:14;5.35;;;2.30;;
20036;SDS011;10179;42.640;23.312;2023-05-23T09:21:43;9.48;;;2.85;;
20036;SDS011;10179;42.640;23.312;2023-05-23T09:24:09;5.95;;;2.45;;
20036;SDS011;10179;42.640;23.312;2023-05-23T09:26:36;7.18;;;2.42;;
20036;SDS011;10179;42.640;23.312;2023-05-23T09:29:03;5.55;;;2.20;;
20036;SDS011;10179;42.640;23.312;2023-05-23T09:31:30;6.82;;;2.50;;
20036;SDS011;10179;42.640;23.312;2023-05-23T09:33:56;5.35;;;2.38;;
20036;SDS011;10179;42.640;23.312;2023-05-23T09:36:25;9.20;;;2.72;;
20036;SDS011;10179;42.640;23.312;2023-05-23T09:38:56;4.22;;;2.00;;
20036;SDS011;10179;42.640;23.312;2023-05-23T09:41:29;5.00;;;2.50;;
20036;SDS011;10179;42.640;23.312;2023-05-23T09:43:56;4.80;;;2.58;;
20036;SDS011;10179;42.640;23.312;2023-05-23T09:46:26;5.88;;;2.90;;
20036;SDS011;10179;42.640;23.312;2023-05-23T09:48:52;4.25;;;2.40;;
20036;SDS011;10179;42.640;23.312;2023-05-23T09:51:20;7.50;;;2.30;;
20036;SDS011;10179;42.640;23.312;2023-05-23T09:53:46;7.00;;;2.33;;
20036;SDS011;10179;42.640;23.312;2023-05-23T09:56:12;4.47;;;1.90;;
20036;SDS011;10179;42.640;23.312;2023-05-23T09:58:42;3.22;;;2.00;;
20036;SDS011;10179;42.640;23.312;2023-05-23T10:01:10;4.63;;;2.50;;
20036;SDS011;10179;42.640;23.312;2023-05-23T10:06:12;5.72;;;2.28;;
20036;SDS011;10179;42.640;23.312;2023-05-23T10:09:12;4.13;;;2.53;;
20036;SDS011;10179;42.640;23.312;2023-05-23T10:14:25;3.40;;;2.38;;
20036;SDS011;10179;42.640;23.312;2023-05-23T10:16:54;4.10;;;2.22;;
20036;SDS011;10179;42.640;23.312;2023-05-23T10:19:28;5.97;;;2.72;;
20036;SDS011;10179;42.640;23.312;2023-05-23T10:22:11;4.55;;;2.00;;
20036;SDS011;10179;42.640;23.312;2023-05-23T10:24:37;3.38;;;2.00;;
20036;SDS011;10179;42.640;23.312;2023-05-23T10:27:04;3.85;;;2.08;;
20036;SDS011;10179;42.640;23.312;2023-05-23T10:29:30;6.05;;;2.05;;
20036;SDS011;10179;42.640;23.312;2023-05-23T10:31:57;5.50;;;2.25;;
20036;SDS011;10179;42.640;23.312;2023-05-23T10:37:23;6.65;;;2.10;;
20036;SDS011;10179;42.640;23.312;2023-05-23T10:45:21;6.10;;;2.50;;
20036;SDS011;10179;42.640;23.312;2023-05-23T10:47:49;5.38;;;2.45;;
20036;SDS011;10179;42.640;23.312;2023-05-23T10:50:32;5.15;;;1.83;;
20036;SDS011;10179;42.640;23.312;2023-05-23T10:52:59;4.53;;;2.63;;
20036;SDS011;10179;42.640;23.312;2023-05-23T10:55:29;3.88;;;2.20;;
20036;SDS011;10179;42.640;23.312;2023-05-23T10:58:15;3.58;;;2.00;;
20036;SDS011;10179;42.640;23.312;2023-05-23T11:00:50;6.70;;;2.38;;
20036;SDS011;10179;42.640;23.312;2023-05-23T11:03:30;8.13;;;3.17;;
20036;SDS011;10179;42.640;23.312;2023-05-23T11:05:57;2.92;;;1.95;;
20036;SDS011;10179;42.640;23.312;2023-05-23T11:08:23;5.68;;;2.08;;
20036;SDS011;10179;42.640;23.312;2023-05-23T11:10:57;3.58;;;2.42;;
20036;SDS011;10179;42.640;23.312;2023-05-23T11:13:24;8.85;;;2.30;;
20036;SDS011;10179;42.640;23.312;2023-05-23T11:15:50;3.33;;;1.90;;
20036;SDS011;10179;42.640;23.312;2023-05-23T11:18:19;6.47;;;2.60;;
20036;SDS011;10179;42.640;23.312;2023-05-23T11:20:47;5.55;;;1.92;;
20036;SDS011;10179;42.640;23.312;2023-05-23T11:23:15;3.05;;;1.75;;
20036;SDS011;10179;42.640;23.312;2023-05-23T11:25:41;3.10;;;2.13;;
20036;SDS011;10179;42.640;23.312;2023-05-23T11:28:12;6.07;;;2.37;;
20036;SDS011;10179;42.640;23.312;2023-05-23T11:30:38;9.60;;;2.50;;
20036;SDS011;10179;42.640;23.312;2023-05-23T11:33:06;9.13;;;2.40;;
20036;SDS011;10179;42.640;23.312;2023-05-23T11:38:09;3.80;;;2.22;;
20036;SDS011;10179;42.640;23.312;2023-05-23T11:43:03;7.75;;;2.20;;
20036;SDS011;10179;42.640;23.312;2023-05-23T11:45:30;7.40;;;2.22;;
20036;SDS011;10179;42.640;23.312;2023-05-23T11:47:57;10.05;;;2.40;;
20036;SDS011;10179;42.640;23.312;2023-05-23T11:50:22;8.38;;;2.58;;
20036;SDS011;10179;42.640;23.312;2023-05-23T11:52:48;13.60;;;2.65;;
20036;SDS011;10179;42.640;23.312;2023-05-23T11:55:20;8.50;;;3.08;;
20036;SDS011;10179;42.640;23.312;2023-05-23T11:57:46;8.50;;;2.13;;
20036;SDS011;10179;42.640;23.312;2023-05-23T12:00:13;7.68;;;1.95;;
20036;SDS011;10179;42.640;23.312;2023-05-23T12:02:39;4.70;;;2.05;;
20036;SDS011;10179;42.640;23.312;2023-05-23T12:05:09;9.07;;;2.00;;
20036;SDS011;10179;42.640;23.312;2023-05-23T12:07:47;4.05;;;2.10;;
20036;SDS011;10179;42.640;23.312;2023-05-23T12:10:14;3.53;;;2.13;;
20036;SDS011;10179;42.640;23.312;2023-05-23T12:12:46;7.53;;;2.40;;
20036;SDS011;10179;42.640;23.312;2023-05-23T12:15:12;3.65;;;1.95;;
20036;SDS011;10179;42.640;23.312;2023-05-23T12:17:44;9.80;;;2.55;;
20036;SDS011;10179;42.640;23.312;2023-05-23T12:20:10;3.60;;;2.10;;
20036;SDS011;10179;42.640;23.312;2023-05-23T12:22:36;6.90;;;2.20;;
20036;SDS011;10179;42.640;23.312;2023-05-23T12:25:02;4.93;;;2.45;;
20036;SDS011;10179;42.640;23.312;2023-05-23T12:27:29;4.35;;;1.98;;
20036;SDS011;10179;42.640;23.312;2023-05-23T12:32:41;7.00;;;2.40;;
20036;SDS011;10179;42.640;23.312;2023-05-23T12:35:08;4.55;;;2.28;;
20036;SDS011;10179;42.640;23.312;2023-05-23T12:37:37;5.88;;;2.10;;
20036;SDS011;10179;42.640;23.312;2023-05-23T12:40:12;8.80;;;2.78;;
20036;SDS011;10179;42.640;23.312;2023-05-23T12:42:46;4.20;;;2.63;;
20036;SDS011;10179;42.640;23.312;2023-05-23T12:45:30;6.68;;;2.72;;
20036;SDS011;10179;42.640;23.312;2023-05-23T12:48:03;2.95;;;1.92;;
20036;SDS011;10179;42.640;23.312;2023-05-23T12:50:32;4.57;;;2.55;;
20036;SDS011;10179;42.640;23.312;2023-05-23T12:52:58;7.20;;;2.20;;
20036;SDS011;10179;42.640;23.312;2023-05-23T12:55:24;3.30;;;2.33;;
20036;SDS011;10179;42.640;23.312;2023-05-23T12:57:49;5.45;;;2.35;;
20036;SDS011;10179;42.640;23.312;2023-05-23T13:00:15;3.10;;;2.28;;
20036;SDS011;10179;42.640;23.312;2023-05-23T13:02:41;4.80;;;2.33;;
20036;SDS011;10179;42.640;23.312;2023-05-23T13:05:06;4.25;;;2.53;;
20036;SDS011;10179;42.640;23.312;2023-05-23T13:07:32;4.18;;;2.30;;
20036;SDS011;10179;42.640;23.312;2023-05-23T13:09:58;7.82;;;2.53;;
20036;SDS011;10179;42.640;23.312;2023-05-23T13:12:23;7.43;;;2.13;;
20036;SDS011;10179;42.640;23.312;2023-05-23T13:14:49;4.80;;;2.38;;
20036;SDS011;10179;42.640;23.312;2023-05-23T13:17:15;3.60;;;2.00;;
20036;SDS011;10179;42.640;23.312;2023-05-23T13:19:41;6.68;;;2.38;;
20036;SDS011;10179;42.640;23.312;2023-05-23T13:22:06;4.15;;;1.98;;
20036;SDS011;10179;42.640;23.312;2023-05-23T13:24:35;3.67;;;1.80;;
20036;SDS011;10179;42.640;23.312;2023-05-23T13:27:01;7.60;;;2.33;;
20036;SDS011;10179;42.640;23.312;2023-05-23T13:29:27;5.57;;;2.05;;
20036;SDS011;10179;42.640;23.312;2023-05-23T13:31:53;3.40;;;1.83;;
20036;SDS011;10179;42.640;23.312;2023-05-23T13:34:19;5.43;;;2.20;;
20036;SDS011;10179;42.640;23.312;2023-05-23T13:36:45;3.03;;;1.58;;
20036;SDS011;10179;42.640;23.312;2023-05-23T13:39:10;5.13;;;1.95;;
20036;SDS011;10179;42.640;23.312;2023-05-23T13:41:35;6.78;;;2.70;;
20036;SDS011;10179;42.640;23.312;2023-05-23T13:44:01;5.35;;;2.20;;
20036;SDS011;10179;42.640;23.312;2023-05-23T13:46:26;4.80;;;2.60;;
20036;SDS011;10179;42.640;23.312;2023-05-23T13:48:51;7.57;;;2.25;;
20036;SDS011;10179;42.640;23.312;2023-05-23T13:51:17;9.10;;;3.17;;
20036;SDS011;10179;42.640;23.312;2023-05-23T13:53:42;5.25;;;2.55;;
20036;SDS011;10179;42.640;23.312;2023-05-23T13:56:08;8.88;;;3.10;;
20036;SDS011;10179;42.640;23.312;2023-05-23T13:58:34;5.15;;;2.30;;
20036;SDS011;10179;42.640;23.312;2023-05-23T14:00:59;5.30;;;2.60;;
20036;SDS011;10179;42.640;23.312;2023-05-23T14:03:24;10.52;;;2.90;;
20036;SDS011;10179;42.640;23.312;2023-05-23T14:05:51;5.35;;;2.25;;
20036;SDS011;10179;42.640;23.312;2023-05-23T14:08:16;11.90;;;3.88;;
20036;SDS011;10179;42.640;23.312;2023-05-23T14:10:42;4.90;;;2.58;;
20036;SDS011;10179;42.640;23.312;2023-05-23T14:13:07;6.47;;;2.35;;
20036;SDS011;10179;42.640;23.312;2023-05-23T14:15:33;6.45;;;2.58;;
20036;SDS011;10179;42.640;23.312;2023-05-23T14:17:59;6.20;;;1.88;;
20036;SDS011;10179;42.640;23.312;2023-05-23T14:20:24;6.75;;;2.53;;
20036;SDS011;10179;42.640;23.312;2023-05-23T14:22:50;4.30;;;2.03;;
20036;SDS011;10179;42.640;23.312;2023-05-23T14:25:16;4.30;;;2.05;;
20036;SDS011;10179;42.640;23.312;2023-05-23T14:27:42;4.55;;;2.13;;
20036;SDS011;10179;42.640;23.312;2023-05-23T14:30:08;3.95;;;2.25;;
20036;SDS011;10179;42.640;23.312;2023-05-23T14:32:34;5.93;;;2.70;;
20036;SDS011;10179;42.640;23.312;2023-05-23T14:35:06;2.75;;;1.73;;
20036;SDS011;10179;42.640;23.312;2023-05-23T14:37:33;3.45;;;2.05;;
20036;SDS011;10179;42.640;23.312;2023-05-23T14:39:59;5.43;;;2.53;;
20036;SDS011;10179;42.640;23.312;2023-05-23T14:42:25;3.47;;;2.22;;
20036;SDS011;10179;42.640;23.312;2023-05-23T14:44:51;6.60;;;2.10;;
20036;SDS011;10179;42.640;23.312;2023-05-23T14:47:17;3.28;;;2.10;;
20036;SDS011;10179;42.640;23.312;2023-05-23T14:49:43;4.95;;;2.20;;
20036;SDS011;10179;42.640;23.312;2023-05-23T14:52:08;6.90;;;2.25;;
20036;SDS011;10179;42.640;23.312;2023-05-23T14:54:34;3.92;;;1.92;;